Time;durP1;ratioP1;P1;durP2;ratioP2;P2;SDS_P1;SDS_P2;PMS_P1;PMS_P2;Temp;Humidity;BMP_temperature;BMP_pressure;BME280_temperature;BME280_humidity;BME280_pressure;Samples;Min_cycle;Max_cycle;Signal;HPM_P1;HPM_P2
2021/04/22 00:01:26;;;;;;;14.70;3.47;;;;;;;;;;5049488;28;20051;-63
2021/04/22 00:03:51;;;;;;;4.20;3.30;;;;;;;;;;5048624;28;20753;-63
2021/04/22 00:06:16;;;;;;;6.32;3.95;;;;;;;;;;5052540;28;20021;-63
2021/04/22 00:08:42;;;;;;;8.57;3.40;;;;;;;;;;5054188;28;20040;-61
2021/04/22 00:11:07;;;;;;;5.32;2.85;;;;;;;;;;5052503;28;20036;-61
2021/04/22 00:13:32;;;;;;;4.88;2.95;;;;;;;;;;5052266;28;20458;-61
2021/04/22 00:16:00;;;;;;;6.72;3.88;;;;;;;;;;5054117;28;20108;-61
2021/04/22 00:18:25;;;;;;;9.43;4.95;;;;;;;;;;5052684;28;20040;-61
2021/04/22 00:20:50;;;;;;;3.78;2.85;;;;;;;;;;5052854;28;20045;-61
2021/04/22 00:23:17;;;;;;;20.63;4.57;;;;;;;;;;5050441;28;20544;-63
2021/04/22 00:25:42;;;;;;;6.28;2.42;;;;;;;;;;5048420;28;20045;-63
2021/04/22 00:28:08;;;;;;;6.57;3.55;;;;;;;;;;5049071;28;20486;-63
2021/04/22 00:30:33;;;;;;;8.63;3.42;;;;;;;;;;5053903;28;20024;-63
2021/04/22 00:32:59;;;;;;;11.95;4.35;;;;;;;;;;5051858;28;20467;-63
2021/04/22 00:35:24;;;;;;;6.30;2.92;;;;;;;;;;5050229;28;20024;-63
2021/04/22 00:37:50;;;;;;;5.68;3.75;;;;;;;;;;5049297;28;20057;-63
2021/04/22 00:40:25;;;;;;;8.25;4.97;;;;;;;;;;5053571;28;20039;-63
2021/04/22 00:42:51;;;;;;;8.18;4.13;;;;;;;;;;5052688;28;20036;-63
2021/04/22 00:45:17;;;;;;;6.57;4.60;;;;;;;;;;5050680;28;20037;-63
2021/04/22 00:47:42;;;;;;;8.45;5.07;;;;;;;;;;5050790;28;20402;-62
2021/04/22 00:50:10;;;;;;;9.88;2.88;;;;;;;;;;5051095;28;20154;-63
2021/04/22 00:52:36;;;;;;;4.65;3.20;;;;;;;;;;5050327;28;20435;-63
2021/04/22 00:55:02;;;;;;;17.42;4.72;;;;;;;;;;5049542;28;20036;-63
2021/04/22 00:57:27;;;;;;;8.23;4.50;;;;;;;;;;5049189;28;20021;-63
2021/04/22 00:59:53;;;;;;;10.32;5.05;;;;;;;;;;5047833;28;20468;-63
2021/04/22 01:02:18;;;;;;;6.20;3.65;;;;;;;;;;5048657;28;20028;-63
2021/04/22 01:04:45;;;;;;;5.05;4.20;;;;;;;;;;5032030;28;20036;-63
2021/04/22 01:07:12;;;;;;;6.47;3.03;;;;;;;;;;5048036;28;20017;-63
2021/04/22 01:09:37;;;;;;;7.95;4.15;;;;;;;;;;5048095;28;20148;-63
2021/04/22 01:12:04;;;;;;;6.78;3.88;;;;;;;;;;5052631;28;20106;-63
2021/04/22 01:14:29;;;;;;;6.70;3.92;;;;;;;;;;5050243;28;20053;-63
2021/04/22 01:16:54;;;;;;;8.85;3.58;;;;;;;;;;5050322;28;20067;-63
2021/04/22 01:19:21;;;;;;;6.15;2.95;;;;;;;;;;5047528;28;20379;-63
2021/04/22 01:21:46;;;;;;;9.18;4.53;;;;;;;;;;5048072;28;20131;-63
2021/04/22 01:24:12;;;;;;;6.18;2.92;;;;;;;;;;5050821;28;20127;-63
2021/04/22 01:26:37;;;;;;;5.93;3.28;;;;;;;;;;5052855;28;20024;-63
2021/04/22 01:29:03;;;;;;;11.50;4.20;;;;;;;;;;5049804;28;20111;-64
2021/04/22 01:31:29;;;;;;;8.57;3.25;;;;;;;;;;5049326;28;20143;-64
2021/04/22 01:34:02;;;;;;;7.63;4.88;;;;;;;;;;5052533;28;20025;-64
2021/04/22 01:36:30;;;;;;;8.48;4.15;;;;;;;;;;5050667;28;20090;-65
2021/04/22 01:38:56;;;;;;;7.40;4.32;;;;;;;;;;5036395;28;20693;-64
2021/04/22 01:41:21;;;;;;;8.75;4.40;;;;;;;;;;5048390;28;20020;-63
2021/04/22 01:43:46;;;;;;;8.35;3.70;;;;;;;;;;5047607;28;20037;-63
2021/04/22 01:46:12;;;;;;;5.05;3.28;;;;;;;;;;5047338;28;20543;-63
2021/04/22 01:48:37;;;;;;;6.50;3.28;;;;;;;;;;5048038;28;20044;-63
2021/04/22 01:51:04;;;;;;;5.40;3.50;;;;;;;;;;5047369;28;20017;-63
2021/04/22 01:53:30;;;;;;;6.38;4.00;;;;;;;;;;5047767;28;20025;-63
2021/04/22 01:55:55;;;;;;;4.32;3.40;;;;;;;;;;5048156;28;20052;-63
2021/04/22 01:58:22;;;;;;;5.05;4.03;;;;;;;;;;5052686;28;20028;-63
2021/04/22 02:00:52;;;;;;;4.50;3.40;;;;;;;;;;5050638;28;20430;-63
2021/04/22 02:03:17;;;;;;;5.53;3.88;;;;;;;;;;5048749;28;20360;-63
2021/04/22 02:05:42;;;;;;;6.07;4.03;;;;;;;;;;5049129;28;20082;-63
2021/04/22 02:08:08;;;;;;;7.07;3.97;;;;;;;;;;5048632;28;20794;-63
2021/04/22 02:10:34;;;;;;;7.65;4.68;;;;;;;;;;5046964;28;20055;-63
2021/04/22 02:13:00;;;;;;;10.55;5.22;;;;;;;;;;5046869;28;20102;-63
2021/04/22 02:15:27;;;;;;;6.20;3.30;;;;;;;;;;5047142;28;20048;-63
2021/04/22 02:17:52;;;;;;;9.82;4.85;;;;;;;;;;5046648;28;20491;-64
2021/04/22 02:20:18;;;;;;;11.77;5.78;;;;;;;;;;5046995;28;20127;-63
2021/04/22 02:22:43;;;;;;;15.38;4.32;;;;;;;;;;5048909;28;20025;-63
2021/04/22 02:25:10;;;;;;;11.77;5.95;;;;;;;;;;5046893;28;20039;-63
2021/04/22 02:27:36;;;;;;;4.80;4.07;;;;;;;;;;5055195;28;20491;-63
2021/04/22 02:30:02;;;;;;;4.28;3.78;;;;;;;;;;5050862;28;20462;-63
2021/04/22 02:32:28;;;;;;;16.48;5.72;;;;;;;;;;5050787;28;20032;-63
2021/04/22 02:34:53;;;;;;;8.77;3.65;;;;;;;;;;5053273;28;20020;-63
2021/04/22 02:37:18;;;;;;;14.95;5.38;;;;;;;;;;5052065;28;20020;-63
2021/04/22 02:39:44;;;;;;;9.27;4.13;;;;;;;;;;5056518;28;20082;-63
2021/04/22 02:42:09;;;;;;;9.70;4.95;;;;;;;;;;5052957;28;20033;-63
2021/04/22 02:44:34;;;;;;;12.05;4.38;;;;;;;;;;5053379;28;20510;-63
2021/04/22 02:47:00;;;;;;;10.27;5.32;;;;;;;;;;5051354;28;20447;-64
2021/04/22 02:49:25;;;;;;;8.32;3.17;;;;;;;;;;5053414;28;20432;-63
2021/04/22 02:51:50;;;;;;;5.57;3.83;;;;;;;;;;5050689;28;20105;-63
2021/04/22 02:54:15;;;;;;;7.18;3.88;;;;;;;;;;5052737;28;20048;-63
2021/04/22 02:56:41;;;;;;;8.98;5.00;;;;;;;;;;5050846;28;20017;-63
2021/04/22 02:59:06;;;;;;;6.75;4.88;;;;;;;;;;5051619;28;20124;-64
2021/04/22 03:01:31;;;;;;;11.60;4.47;;;;;;;;;;5054147;28;20466;-63
2021/04/22 03:03:57;;;;;;;8.43;4.10;;;;;;;;;;5054191;28;20031;-63
2021/04/22 03:06:22;;;;;;;8.38;5.35;;;;;;;;;;5055095;28;20548;-63
2021/04/22 03:08:47;;;;;;;8.00;4.97;;;;;;;;;;5050944;28;20768;-63
2021/04/22 03:11:13;;;;;;;11.00;5.80;;;;;;;;;;5052150;28;20029;-63
2021/04/22 03:13:39;;;;;;;11.43;4.15;;;;;;;;;;5050665;28;20025;-63
2021/04/22 03:16:04;;;;;;;3.75;2.83;;;;;;;;;;5050194;28;20023;-63
2021/04/22 03:18:30;;;;;;;4.40;2.80;;;;;;;;;;5051661;28;20120;-63
2021/04/22 03:20:55;;;;;;;3.78;3.25;;;;;;;;;;5050110;28;20048;-63
2021/04/22 03:23:20;;;;;;;11.20;4.95;;;;;;;;;;5052032;28;20044;-63
2021/04/22 03:25:46;;;;;;;12.80;4.03;;;;;;;;;;5055137;28;20024;-63
2021/04/22 03:28:11;;;;;;;11.82;3.10;;;;;;;;;;5056231;28;20624;-63
2021/04/22 03:30:36;;;;;;;5.13;3.80;;;;;;;;;;5050547;28;20391;-62
2021/04/22 03:33:02;;;;;;;8.20;3.17;;;;;;;;;;5052043;28;20414;-63
2021/04/22 03:35:28;;;;;;;5.95;3.03;;;;;;;;;;5051374;28;20027;-62
2021/04/22 03:37:53;;;;;;;4.93;2.50;;;;;;;;;;5050401;28;20059;-62
2021/04/22 03:40:19;;;;;;;7.45;3.08;;;;;;;;;;5050238;28;20036;-62
2021/04/22 03:42:45;;;;;;;6.95;2.97;;;;;;;;;;5049972;28;20038;-64
2021/04/22 03:45:11;;;;;;;9.55;4.50;;;;;;;;;;5051772;28;20534;-68
2021/04/22 03:47:37;;;;;;;7.95;2.92;;;;;;;;;;5052364;28;20071;-65
2021/04/22 03:50:04;;;;;;;5.53;3.33;;;;;;;;;;5063569;28;20074;-63
2021/04/22 03:52:29;;;;;;;4.55;2.70;;;;;;;;;;5051169;28;20422;-64
2021/04/22 03:54:55;;;;;;;4.88;3.33;;;;;;;;;;5037487;28;20074;-65
2021/04/22 03:57:20;;;;;;;3.20;2.25;;;;;;;;;;5051057;28;20082;-63
2021/04/22 03:59:46;;;;;;;7.53;3.75;;;;;;;;;;5054671;28;20028;-63
2021/04/22 04:02:11;;;;;;;7.05;4.10;;;;;;;;;;5050924;28;20734;-64
2021/04/22 04:04:36;;;;;;;2.85;2.65;;;;;;;;;;5050103;28;20506;-63
2021/04/22 04:07:02;;;;;;;5.72;2.53;;;;;;;;;;5049633;28;20029;-63
2021/04/22 04:09:27;;;;;;;6.18;2.80;;;;;;;;;;5051504;28;20718;-63
2021/04/22 04:11:53;;;;;;;6.70;3.92;;;;;;;;;;5051446;28;20139;-63
2021/04/22 04:14:18;;;;;;;12.75;4.20;;;;;;;;;;5049963;28;20036;-63
2021/04/22 04:16:43;;;;;;;14.45;2.85;;;;;;;;;;5050484;28;20021;-63
2021/04/22 04:19:09;;;;;;;6.65;4.55;;;;;;;;;;5051072;28;20032;-63
2021/04/22 04:21:34;;;;;;;5.10;2.83;;;;;;;;;;5049002;28;20032;-63
2021/04/22 04:23:59;;;;;;;3.75;2.63;;;;;;;;;;5051389;28;20494;-63
2021/04/22 04:26:25;;;;;;;4.20;3.75;;;;;;;;;;5050225;28;20028;-63
2021/04/22 04:28:50;;;;;;;6.30;2.75;;;;;;;;;;5049714;28;20025;-65
2021/04/22 04:31:16;;;;;;;13.27;2.97;;;;;;;;;;5050687;28;20367;-62
2021/04/22 04:33:41;;;;;;;6.05;3.53;;;;;;;;;;5050458;28;20028;-65
2021/04/22 04:36:07;;;;;;;4.40;3.15;;;;;;;;;;5048712;28;20179;-64
2021/04/22 04:38:32;;;;;;;4.32;2.17;;;;;;;;;;5051077;28;20140;-64
2021/04/22 04:40:57;;;;;;;4.70;2.55;;;;;;;;;;5049390;28;20036;-63
2021/04/22 04:43:22;;;;;;;3.47;2.42;;;;;;;;;;5051530;28;20036;-62
2021/04/22 04:45:48;;;;;;;5.70;3.25;;;;;;;;;;5053241;28;20029;-63
2021/04/22 04:48:13;;;;;;;14.10;3.90;;;;;;;;;;5049335;28;20025;-63
2021/04/22 04:50:38;;;;;;;5.22;3.10;;;;;;;;;;5047598;28;20111;-63
2021/04/22 04:53:04;;;;;;;4.25;2.65;;;;;;;;;;5048597;28;20029;-63
2021/04/22 04:55:29;;;;;;;5.22;3.47;;;;;;;;;;5048885;28;20027;-63
2021/04/22 04:57:54;;;;;;;7.07;3.33;;;;;;;;;;5049316;28;20028;-63
2021/04/22 05:00:20;;;;;;;4.50;3.10;;;;;;;;;;5049646;28;20024;-63
2021/04/22 05:02:45;;;;;;;5.40;2.92;;;;;;;;;;5049725;28;20032;-63
2021/04/22 05:05:11;;;;;;;5.65;2.90;;;;;;;;;;5053080;28;20530;-63
2021/04/22 05:07:37;;;;;;;6.63;2.83;;;;;;;;;;5052300;28;20029;-63
2021/04/22 05:10:04;;;;;;;4.45;2.92;;;;;;;;;;5048584;28;20020;-63
2021/04/22 05:12:29;;;;;;;5.20;2.50;;;;;;;;;;5050878;28;20378;-63
2021/04/22 05:14:54;;;;;;;4.57;2.95;;;;;;;;;;5048246;28;20025;-63
2021/04/22 05:17:19;;;;;;;3.83;2.30;;;;;;;;;;5047678;28;20025;-63
2021/04/22 05:19:45;;;;;;;3.55;2.20;;;;;;;;;;5051679;28;20055;-63
2021/04/22 05:22:10;;;;;;;7.45;3.13;;;;;;;;;;5049846;28;20028;-63
2021/04/22 05:24:36;;;;;;;4.38;2.85;;;;;;;;;;5047742;28;20053;-63
2021/04/22 05:27:01;;;;;;;8.57;3.60;;;;;;;;;;5051404;28;20083;-63
2021/04/22 05:29:26;;;;;;;7.15;3.45;;;;;;;;;;5049977;28;20056;-63
2021/04/22 05:31:52;;;;;;;5.05;3.30;;;;;;;;;;5048629;28;20021;-63
2021/04/22 05:34:17;;;;;;;9.90;3.03;;;;;;;;;;5047771;28;20029;-63
2021/04/22 05:36:43;;;;;;;1.85;1.67;;;;;;;;;;5047568;28;20016;-63
2021/04/22 05:39:08;;;;;;;7.28;2.67;;;;;;;;;;5054079;28;20085;-63
2021/04/22 05:41:33;;;;;;;3.17;2.42;;;;;;;;;;5057047;28;20472;-63
2021/04/22 05:43:59;;;;;;;3.03;2.28;;;;;;;;;;5047170;28;20033;-63
2021/04/22 05:46:24;;;;;;;3.13;2.40;;;;;;;;;;5049465;28;20032;-63
2021/04/22 05:48:49;;;;;;;5.55;3.53;;;;;;;;;;5052201;28;20529;-63
2021/04/22 05:51:15;;;;;;;1.95;1.30;;;;;;;;;;5053920;28;20031;-63
2021/04/22 05:53:40;;;;;;;5.05;2.65;;;;;;;;;;5047541;28;20029;-63
2021/04/22 05:56:05;;;;;;;11.07;3.33;;;;;;;;;;5048184;28;20017;-63
2021/04/22 05:58:31;;;;;;;4.57;3.03;;;;;;;;;;5047838;28;20032;-63
2021/04/22 06:00:56;;;;;;;4.72;3.58;;;;;;;;;;5045604;28;20381;-63
2021/04/22 06:03:21;;;;;;;4.43;2.05;;;;;;;;;;5050155;28;20048;-63
2021/04/22 06:05:47;;;;;;;4.93;2.92;;;;;;;;;;5047271;28;20521;-63
2021/04/22 06:08:12;;;;;;;6.10;3.35;;;;;;;;;;5051447;28;20036;-63
2021/04/22 06:10:38;;;;;;;6.03;2.50;;;;;;;;;;5048822;28;20020;-63
2021/04/22 06:13:04;;;;;;;1.60;1.27;;;;;;;;;;5048842;28;20025;-63
2021/04/22 06:15:29;;;;;;;5.03;2.15;;;;;;;;;;5047639;28;20035;-63
2021/04/22 06:17:54;;;;;;;41.50;30.63;;;;;;;;;;5046991;28;20041;-63
2021/04/22 06:20:21;;;;;;;34.47;15.55;;;;;;;;;;5046334;28;20045;-63
2021/04/22 06:22:48;;;;;;;20.98;18.58;;;;;;;;;;5046937;28;20056;-63
2021/04/22 06:25:14;;;;;;;20.35;14.48;;;;;;;;;;5046268;28;20051;-63
2021/04/22 06:27:39;;;;;;;10.13;6.68;;;;;;;;;;5047166;28;20041;-63
2021/04/22 06:30:06;;;;;;;8.60;3.28;;;;;;;;;;5050993;28;20032;-63
2021/04/22 06:32:31;;;;;;;9.70;7.85;;;;;;;;;;5046563;28;20430;-63
2021/04/22 06:34:57;;;;;;;20.33;6.75;;;;;;;;;;5057767;28;20071;-62
2021/04/22 06:37:22;;;;;;;10.55;6.60;;;;;;;;;;5049848;28;20028;-66
2021/04/22 06:39:48;;;;;;;7.38;3.47;;;;;;;;;;5046430;28;20107;-66
2021/04/22 06:42:13;;;;;;;4.38;2.97;;;;;;;;;;5050745;28;20028;-66
2021/04/22 06:44:38;;;;;;;8.38;4.90;;;;;;;;;;5049744;28;20025;-66
2021/04/22 06:47:04;;;;;;;3.80;3.03;;;;;;;;;;5047956;28;20031;-66
2021/04/22 06:49:29;;;;;;;4.32;3.40;;;;;;;;;;5046571;28;20044;-67
2021/04/22 06:51:55;;;;;;;3.00;2.63;;;;;;;;;;5046036;28;20048;-66
2021/04/22 06:54:20;;;;;;;3.42;1.75;;;;;;;;;;5047292;28;20382;-65
2021/04/22 06:56:45;;;;;;;8.85;3.03;;;;;;;;;;5054807;28;20510;-65
2021/04/22 06:59:11;;;;;;;2.72;1.95;;;;;;;;;;5049122;28;20081;-65
2021/04/22 07:01:36;;;;;;;3.40;2.38;;;;;;;;;;5046769;28;20135;-66
2021/04/22 07:04:02;;;;;;;3.78;1.17;;;;;;;;;;5050610;28;20423;-64
2021/04/22 07:06:27;;;;;;;2.15;1.33;;;;;;;;;;5049006;28;20021;-65
2021/04/22 07:08:53;;;;;;;7.35;1.40;;;;;;;;;;5048486;28;20025;-65
2021/04/22 07:11:18;;;;;;;1.90;1.33;;;;;;;;;;5047144;28;20317;-65
2021/04/22 07:13:44;;;;;;;3.83;1.98;;;;;;;;;;5048332;28;20063;-66
2021/04/22 07:16:09;;;;;;;2.95;1.88;;;;;;;;;;5051962;28;20025;-64
2021/04/22 07:18:34;;;;;;;2.53;1.88;;;;;;;;;;5052006;28;20475;-64
2021/04/22 07:21:00;;;;;;;10.25;5.18;;;;;;;;;;5049939;28;20053;-64
2021/04/22 07:23:27;;;;;;;23.80;21.48;;;;;;;;;;5052225;28;20044;-64
2021/04/22 07:25:52;;;;;;;4.78;4.05;;;;;;;;;;5051081;28;20025;-64
2021/04/22 07:28:18;;;;;;;6.75;5.47;;;;;;;;;;5050252;28;20036;-64
2021/04/22 07:30:43;;;;;;;6.78;4.57;;;;;;;;;;5051502;28;20392;-64
2021/04/22 07:33:09;;;;;;;5.47;2.38;;;;;;;;;;5049757;28;20420;-64
2021/04/22 07:35:35;;;;;;;13.05;10.70;;;;;;;;;;5053890;28;20511;-64
2021/04/22 07:38:00;;;;;;;9.52;5.28;;;;;;;;;;5052469;28;20360;-64
2021/04/22 07:40:27;;;;;;;4.47;2.80;;;;;;;;;;5052336;28;20032;-62
2021/04/22 07:42:53;;;;;;;5.03;2.10;;;;;;;;;;5051670;28;20115;-64
2021/04/22 07:45:19;;;;;;;3.10;1.98;;;;;;;;;;5036021;28;20108;-63
2021/04/22 07:47:45;;;;;;;5.22;3.05;;;;;;;;;;5050663;28;20033;-64
2021/04/22 07:50:11;;;;;;;5.55;2.88;;;;;;;;;;5050469;28;20036;-63
2021/04/22 07:52:36;;;;;;;3.15;1.83;;;;;;;;;;5051924;28;20471;-63
2021/04/22 07:55:04;;;;;;;3.58;1.77;;;;;;;;;;5031904;28;20025;-63
2021/04/22 07:57:29;;;;;;;3.70;2.50;;;;;;;;;;5049543;28;20391;-64
2021/04/22 07:59:56;;;;;;;3.53;2.20;;;;;;;;;;5051194;28;20021;-63
2021/04/22 08:02:21;;;;;;;3.78;2.45;;;;;;;;;;5053040;28;20016;-63
2021/04/22 08:04:47;;;;;;;2.97;2.17;;;;;;;;;;5049724;28;20059;-63
2021/04/22 08:07:13;;;;;;;7.70;2.25;;;;;;;;;;5050769;28;20509;-64
2021/04/22 08:09:38;;;;;;;5.63;3.33;;;;;;;;;;5051283;28;20060;-63
2021/04/22 08:12:05;;;;;;;5.63;4.32;;;;;;;;;;5049024;28;20361;-64
2021/04/22 08:14:31;;;;;;;7.95;3.28;;;;;;;;;;5049297;28;20033;-64
2021/04/22 08:16:56;;;;;;;2.90;2.20;;;;;;;;;;5049446;28;20032;-64
2021/04/22 08:19:21;;;;;;;3.05;2.05;;;;;;;;;;5050567;28;20129;-63
2021/04/22 08:21:47;;;;;;;9.00;2.67;;;;;;;;;;5049457;28;20032;-63
2021/04/22 08:24:12;;;;;;;4.82;1.95;;;;;;;;;;5058419;28;20024;-63
2021/04/22 08:26:37;;;;;;;7.20;2.55;;;;;;;;;;5052037;28;20033;-64
2021/04/22 08:29:04;;;;;;;2.83;2.10;;;;;;;;;;5053047;28;20025;-64
2021/04/22 08:31:29;;;;;;;9.82;1.92;;;;;;;;;;5049143;28;20029;-63
2021/04/22 08:33:57;;;;;;;4.28;2.00;;;;;;;;;;5054610;28;20099;-63
2021/04/22 08:36:23;;;;;;;4.88;3.40;;;;;;;;;;5051427;28;20021;-63
2021/04/22 08:38:49;;;;;;;5.65;1.85;;;;;;;;;;5049504;28;20076;-64
2021/04/22 08:41:14;;;;;;;6.07;3.15;;;;;;;;;;5049346;28;20020;-64
2021/04/22 08:43:40;;;;;;;2.47;1.77;;;;;;;;;;5050029;28;20028;-63
2021/04/22 08:46:06;;;;;;;11.85;4.38;;;;;;;;;;5052489;28;20035;-64
2021/04/22 08:48:32;;;;;;;3.70;2.85;;;;;;;;;;5049272;28;20025;-64
2021/04/22 08:50:57;;;;;;;4.70;3.15;;;;;;;;;;5049185;28;20028;-64
2021/04/22 08:53:25;;;;;;;22.02;2.97;;;;;;;;;;5048907;28;20029;-64
2021/04/22 08:55:51;;;;;;;5.75;2.35;;;;;;;;;;5052546;28;20508;-64
2021/04/22 08:58:16;;;;;;;12.13;10.38;;;;;;;;;;5049622;28;20070;-64
2021/04/22 09:00:43;;;;;;;6.95;3.38;;;;;;;;;;5048001;28;20036;-64
2021/04/22 09:03:09;;;;;;;5.07;2.80;;;;;;;;;;5048197;28;20061;-64
2021/04/22 09:05:35;;;;;;;4.20;2.03;;;;;;;;;;5048394;28;20058;-64
2021/04/22 09:08:00;;;;;;;4.70;2.88;;;;;;;;;;5048306;28;20032;-64
2021/04/22 09:10:27;;;;;;;4.80;3.55;;;;;;;;;;5048785;28;20044;-64
2021/04/22 09:12:55;;;;;;;5.85;2.65;;;;;;;;;;5033899;28;20075;-65
2021/04/22 09:15:21;;;;;;;2.25;1.65;;;;;;;;;;5051252;28;20071;-64
2021/04/22 09:17:54;;;;;;;9.00;4.97;;;;;;;;;;5049659;28;20474;-64
2021/04/22 09:20:25;;;;;;;8.68;3.53;;;;;;;;;;5052723;28;20061;-65
2021/04/22 09:22:51;;;;;;;5.43;2.47;;;;;;;;;;5032686;28;20033;-63
2021/04/22 09:25:25;;;;;;;3.30;2.33;;;;;;;;;;5047699;28;20361;-64
2021/04/22 09:27:54;;;;;;;11.65;2.85;;;;;;;;;;5047860;28;20047;-64
2021/04/22 09:30:30;;;;;;;5.25;2.10;;;;;;;;;;5047616;28;20773;-64
2021/04/22 09:32:56;;;;;;;4.50;2.38;;;;;;;;;;5046638;28;20124;-64
2021/04/22 09:35:24;;;;;;;3.35;2.08;;;;;;;;;;5048797;28;20099;-65
2021/04/22 09:37:51;;;;;;;17.52;2.55;;;;;;;;;;5048799;28;20094;-64
2021/04/22 09:40:17;;;;;;;5.18;2.67;;;;;;;;;;5052039;28;20025;-65
2021/04/22 09:42:42;;;;;;;12.20;1.90;;;;;;;;;;5052486;28;20372;-64
2021/04/22 09:45:11;;;;;;;7.28;2.38;;;;;;;;;;5047549;28;20772;-64
2021/04/22 09:47:36;;;;;;;3.85;2.75;;;;;;;;;;5050865;28;20055;-64
2021/04/22 09:50:13;;;;;;;7.25;2.90;;;;;;;;;;5049004;28;20091;-64
2021/04/22 09:52:40;;;;;;;7.93;4.55;;;;;;;;;;5047564;28;20029;-65
2021/04/22 09:55:08;;;;;;;6.25;2.40;;;;;;;;;;5050751;28;20075;-64
2021/04/22 09:57:36;;;;;;;4.05;1.98;;;;;;;;;;5047680;28;20115;-64
2021/04/22 10:00:14;;;;;;;3.92;2.70;;;;;;;;;;5049242;28;20107;-64
2021/04/22 10:02:43;;;;;;;5.15;2.70;;;;;;;;;;5049619;28;20079;-64
2021/04/22 10:05:14;;;;;;;3.95;2.38;;;;;;;;;;5046990;28;20020;-64
2021/04/22 10:07:40;;;;;;;2.20;1.42;;;;;;;;;;5046227;28;20481;-64
2021/04/22 10:10:23;;;;;;;2.78;1.98;;;;;;;;;;5047787;28;20036;-64
2021/04/22 10:12:49;;;;;;;3.83;2.63;;;;;;;;;;5049370;28;20036;-64
2021/04/22 10:15:19;;;;;;;3.40;2.47;;;;;;;;;;5044858;28;20375;-63
2021/04/22 10:17:54;;;;;;;3.17;2.13;;;;;;;;;;5047296;28;20044;-64
2021/04/22 10:20:20;;;;;;;10.02;3.20;;;;;;;;;;5050010;28;20138;-64
2021/04/22 10:22:47;;;;;;;3.58;2.25;;;;;;;;;;5050537;28;20056;-64
2021/04/22 10:25:14;;;;;;;3.78;2.35;;;;;;;;;;5036882;28;20025;-64
2021/04/22 10:27:40;;;;;;;2.45;2.10;;;;;;;;;;5050475;28;20100;-64
2021/04/22 10:30:11;;;;;;;6.07;2.88;;;;;;;;;;5048652;28;20033;-64
2021/04/22 10:32:38;;;;;;;5.95;3.58;;;;;;;;;;5046495;28;20052;-64
2021/04/22 10:35:04;;;;;;;7.07;3.60;;;;;;;;;;5045406;28;20025;-64
2021/04/22 10:37:32;;;;;;;6.20;4.18;;;;;;;;;;5048206;28;20022;-64
2021/04/22 10:39:58;;;;;;;3.00;2.38;;;;;;;;;;5047421;28;20028;-64
2021/04/22 10:42:24;;;;;;;5.93;3.95;;;;;;;;;;5051027;28;20031;-64
2021/04/22 10:44:49;;;;;;;3.13;2.30;;;;;;;;;;5048697;28;20126;-64
2021/04/22 10:47:22;;;;;;;4.35;3.38;;;;;;;;;;5048995;28;20031;-64
2021/04/22 10:49:47;;;;;;;7.53;5.38;;;;;;;;;;5052467;28;20025;-64
2021/04/22 10:52:13;;;;;;;8.77;4.22;;;;;;;;;;5051781;28;20086;-64
2021/04/22 10:54:39;;;;;;;9.27;4.90;;;;;;;;;;5052300;28;20033;-64
2021/04/22 10:57:06;;;;;;;8.05;3.60;;;;;;;;;;5050259;28;20028;-64
2021/04/22 10:59:33;;;;;;;7.07;3.28;;;;;;;;;;5053646;28;20363;-64
2021/04/22 11:02:09;;;;;;;25.80;5.80;;;;;;;;;;5048953;28;20025;-64
2021/04/22 11:04:35;;;;;;;10.18;5.15;;;;;;;;;;5051372;28;20463;-64
2021/04/22 11:07:00;;;;;;;8.05;4.75;;;;;;;;;;5055715;28;20028;-64
2021/04/22 11:09:33;;;;;;;17.60;2.67;;;;;;;;;;5054106;28;20032;-64
2021/04/22 11:12:00;;;;;;;2.90;1.65;;;;;;;;;;5052483;28;20056;-64
2021/04/22 11:14:38;;;;;;;17.77;2.88;;;;;;;;;;5053253;28;20474;-64
2021/04/22 11:17:03;;;;;;;16.00;4.05;;;;;;;;;;5050172;28;20032;-64
2021/04/22 11:19:34;;;;;;;5.15;3.42;;;;;;;;;;5054007;28;20061;-64
2021/04/22 11:22:14;;;;;;;9.75;2.67;;;;;;;;;;5053279;28;20074;-64
2021/04/22 11:25:06;;;;;;;73.13;22.67;;;;;;;;;;5051319;28;20052;-64
2021/04/22 11:27:32;;;;;;;3.22;2.22;;;;;;;;;;5044640;28;20037;-63
2021/04/22 11:29:59;;;;;;;5.07;3.60;;;;;;;;;;5050031;28;20446;-63
2021/04/22 11:32:24;;;;;;;16.60;3.90;;;;;;;;;;5057381;28;20377;-64
2021/04/22 11:34:51;;;;;;;19.95;5.68;;;;;;;;;;5055593;28;20051;-63
2021/04/22 11:37:21;;;;;;;8.75;6.68;;;;;;;;;;5051595;28;20032;-63
2021/04/22 11:39:47;;;;;;;6.85;5.70;;;;;;;;;;5057128;28;20463;-63
2021/04/22 11:42:16;;;;;;;6.63;5.22;;;;;;;;;;5053010;28;20025;-64
2021/04/22 11:44:42;;;;;;;8.07;6.53;;;;;;;;;;5052314;28;20036;-63
2021/04/22 11:47:14;;;;;;;7.40;5.00;;;;;;;;;;5050550;28;20013;-63
2021/04/22 11:49:40;;;;;;;8.13;6.20;;;;;;;;;;5052206;28;20037;-63
2021/04/22 11:52:13;;;;;;;7.47;5.30;;;;;;;;;;5049217;28;20024;-63
2021/04/22 11:54:39;;;;;;;5.22;3.67;;;;;;;;;;5050420;28;20029;-63
2021/04/22 11:57:05;;;;;;;4.20;3.78;;;;;;;;;;5050455;28;20476;-63
2021/04/22 11:59:31;;;;;;;9.48;5.90;;;;;;;;;;5050884;28;20048;-63
2021/04/22 12:02:07;;;;;;;8.20;6.03;;;;;;;;;;5051030;28;20482;-64
2021/04/22 12:04:36;;;;;;;10.57;7.57;;;;;;;;;;5049822;28;20029;-63
2021/04/22 12:07:04;;;;;;;6.18;5.10;;;;;;;;;;5049769;28;20170;-63
2021/04/22 12:09:30;;;;;;;8.43;4.53;;;;;;;;;;5049995;28;20048;-63
2021/04/22 12:12:25;;;;;;;6.20;4.35;;;;;;;;;;5048899;28;20021;-63
2021/04/22 12:14:53;;;;;;;17.40;7.57;;;;;;;;;;5038924;28;20051;-63
2021/04/22 12:17:19;;;;;;;6.43;4.15;;;;;;;;;;5053560;28;20025;-63
2021/04/22 12:19:47;;;;;;;9.68;6.25;;;;;;;;;;5050331;28;20090;-64
2021/04/22 12:22:12;;;;;;;7.55;4.93;;;;;;;;;;5050700;28;20029;-64
2021/04/22 12:24:38;;;;;;;9.25;4.82;;;;;;;;;;5048569;28;20036;-64
2021/04/22 12:27:03;;;;;;;6.65;4.68;;;;;;;;;;5048439;28;20344;-64
2021/04/22 12:29:29;;;;;;;6.55;4.68;;;;;;;;;;5050807;28;20142;-64
2021/04/22 12:31:59;;;;;;;7.38;3.92;;;;;;;;;;5050889;28;20017;-64
2021/04/22 12:34:29;;;;;;;7.30;3.95;;;;;;;;;;5051607;28;20033;-64
2021/04/22 12:36:57;;;;;;;12.90;7.30;;;;;;;;;;5050308;28;20025;-64
2021/04/22 12:39:24;;;;;;;16.67;6.22;;;;;;;;;;5052179;28;20096;-65
2021/04/22 12:41:49;;;;;;;8.00;6.13;;;;;;;;;;5048754;28;20037;-64
2021/04/22 12:44:18;;;;;;;4.82;3.30;;;;;;;;;;5049546;28;20126;-65
2021/04/22 12:46:43;;;;;;;5.25;3.95;;;;;;;;;;5048212;28;20997;-65
2021/04/22 12:49:09;;;;;;;4.47;3.15;;;;;;;;;;5049090;28;20056;-65
2021/04/22 12:51:36;;;;;;;8.00;4.15;;;;;;;;;;5048888;28;20054;-64
2021/04/22 12:54:02;;;;;;;7.53;3.20;;;;;;;;;;5049180;28;20036;-64
2021/04/22 12:56:29;;;;;;;6.28;3.15;;;;;;;;;;5047173;28;20025;-64
2021/04/22 12:58:54;;;;;;;8.23;3.50;;;;;;;;;;5048284;28;20163;-65
2021/04/22 13:01:32;;;;;;;5.32;3.30;;;;;;;;;;5052293;28;20091;-64
2021/04/22 13:04:00;;;;;;;14.65;7.53;;;;;;;;;;5047778;28;20021;-64
2021/04/22 13:06:26;;;;;;;5.75;4.28;;;;;;;;;;5049381;28;20099;-64
2021/04/22 13:08:53;;;;;;;11.65;5.47;;;;;;;;;;5052700;28;20119;-66
2021/04/22 13:11:19;;;;;;;6.57;3.80;;;;;;;;;;5033646;28;20041;-64
2021/04/22 13:13:49;;;;;;;7.20;4.90;;;;;;;;;;5050284;28;20456;-64
2021/04/22 13:16:17;;;;;;;12.43;5.22;;;;;;;;;;5048889;28;20525;-64
2021/04/22 13:18:43;;;;;;;9.90;3.97;;;;;;;;;;5049101;28;20029;-64
2021/04/22 13:21:21;;;;;;;7.72;4.53;;;;;;;;;;5046678;28;20813;-65
2021/04/22 13:23:47;;;;;;;8.30;4.95;;;;;;;;;;5045363;28;20390;-65
2021/04/22 13:26:17;;;;;;;10.15;5.28;;;;;;;;;;5048148;28;20024;-64
2021/04/22 13:28:43;;;;;;;6.88;3.78;;;;;;;;;;5047568;28;20340;-64
2021/04/22 13:31:16;;;;;;;6.25;4.82;;;;;;;;;;5047978;28;20021;-64
2021/04/22 13:33:41;;;;;;;13.30;4.97;;;;;;;;;;5048615;28;20035;-64
2021/04/22 13:36:10;;;;;;;7.18;5.80;;;;;;;;;;5052233;28;20029;-64
2021/04/22 13:38:35;;;;;;;9.65;4.20;;;;;;;;;;5052324;28;20017;-64
2021/04/22 13:41:14;;;;;;;12.00;4.97;;;;;;;;;;5050197;28;20083;-71
2021/04/22 13:43:50;;;;;;;11.48;4.20;;;;;;;;;;5047185;28;20037;-71
2021/04/22 13:46:16;;;;;;;3.67;3.05;;;;;;;;;;5047948;28;20025;-71
2021/04/22 13:48:41;;;;;;;7.45;3.25;;;;;;;;;;5053511;28;20044;-71
2021/04/22 13:51:10;;;;;;;7.47;5.47;;;;;;;;;;5049700;28;20013;-71
2021/04/22 13:53:36;;;;;;;7.57;4.57;;;;;;;;;;5054143;28;20051;-65
2021/04/22 13:56:01;;;;;;;10.68;5.03;;;;;;;;;;5055417;28;20024;-64
2021/04/22 13:58:30;;;;;;;8.50;5.22;;;;;;;;;;5054849;28;20028;-64
2021/04/22 14:00:56;;;;;;;5.10;3.70;;;;;;;;;;5053119;28;20471;-65
2021/04/22 14:03:27;;;;;;;6.13;3.63;;;;;;;;;;5052571;28;20037;-65
2021/04/22 14:05:52;;;;;;;10.43;4.63;;;;;;;;;;5049820;28;20044;-65
2021/04/22 14:08:26;;;;;;;5.32;4.22;;;;;;;;;;5036598;28;20376;-65
2021/04/22 14:10:51;;;;;;;4.40;3.40;;;;;;;;;;5053462;28;20044;-65
2021/04/22 14:13:18;;;;;;;7.25;4.13;;;;;;;;;;5033597;28;20420;-66
2021/04/22 14:15:43;;;;;;;5.70;3.70;;;;;;;;;;5049994;28;20021;-65
2021/04/22 14:18:09;;;;;;;5.80;3.75;;;;;;;;;;5060796;28;20024;-65
2021/04/22 14:20:34;;;;;;;5.38;3.53;;;;;;;;;;5048313;28;20124;-65
2021/04/22 14:22:59;;;;;;;10.38;4.28;;;;;;;;;;5050003;28;20154;-65
2021/04/22 14:25:24;;;;;;;13.40;4.55;;;;;;;;;;5050821;28;20048;-65
2021/04/22 14:27:50;;;;;;;15.07;4.32;;;;;;;;;;5052587;28;20033;-66
2021/04/22 14:30:15;;;;;;;12.35;6.00;;;;;;;;;;5052779;28;20025;-66
2021/04/22 14:32:41;;;;;;;15.25;4.57;;;;;;;;;;5056784;28;20035;-66
2021/04/22 14:35:06;;;;;;;7.75;5.00;;;;;;;;;;5055206;28;20019;-66
2021/04/22 14:37:31;;;;;;;10.10;4.95;;;;;;;;;;5053758;28;20526;-66